Etusivu
METAR-TAF:

METAR-TAF

Lentoasemat :

Roben-Hood Airport

Big Rapids, Michigan, Yhdysvallat

Leveyspiiri: 43-43-21N, Pituuspiiri: 085-30-15W, korkeus merenpinnasta: 302 m

Tämänhetkinen sää

Tämä raportti tehtiin 16 minuuttia sitten, kello 22.15 UTC
Tuuli 6 kn lounaasta
Lämpötila 29°C
Kosteus 62%
Ilmanpaine 1012 hPa
Näkyvyys: 16.1 km
Hajonneita pilviä 3300 ft:n korkeudessa

METAR: KRQB 162215Z AUTO 23006KT 10SM BKN033 29/21 A2988 RMK AO2 T02860206

Aika: 18:31 (22:31 UTC)


TAF: puuttuu

Säähavainnot ja -ennusteet yli 4000 lentoasemalta (METAR- ja TAF-raportit).

Käytössä olevat sääasemat on merkitty karttaan keltaisilla ja punaisilla pisteillä.

Aseta hiiri pisteen päälle nähdäksesi sääaseman nimen.

Klikkaa sitten nähdäksesi säähavainnot ja -ennusteet.

Kartan vaihtaminen: klikkaa mustalla rastilla varustettuja vihreitä pisteitä, niin voit zoomata sisään; viivalla varustettua vihreää pistettä, niin voit zoomata ulos tai vihreitä nuolia, niin pääset viereisille kartoille.


METAR-TAF: